Columbia, New Hampshire
Current Conditions -  °F | °C
As of 5:52 AM on Thursday 27 Nov 2014 (Local Time) from KBML Reporting Station
Light Snow Light Snow  
Wind Chill: 21°   Ceiling: 2700
Heat Index: 26°   Visibility: 4mi
Dew Point: 21°   Wind: 5mph
Humidity: 81%   Direction: 330°NNW
Pressure: 29.82"   Gusts: NA
Location:  44.7189°N, 71.4659°W
Report Text: KBML 271052Z AUTO 33004KT 4SM -SN FEW014 OVC027 M03/M06 A2982 RMK AO2 SLP114 P0001 T10331061
Loading
Personal Weather Stations






























Interactive Weather Map New forecast layout! Learn more

10-Day Weather Forecast

Advertisements
Track Severe Weather on mobile